Time;durP1;ratioP1;P1;durP2;ratioP2;P2;SDS_P1;SDS_P2;PMS_P1;PMS_P2;Temp;Humidity;BMP_temperature;BMP_pressure;BME280_temperature;BME280_humidity;BME280_pressure;Samples;Min_cycle;Max_cycle;Signal;HPM_P1;HPM_P2
2021/12/01 00:01:10;;;;;;;3.33;1.40;;;7.20;99.90;;;;;;5065112;28;20215;-83
2021/12/01 00:03:40;;;;;;;3.67;1.50;;;7.20;99.90;;;;;;5064832;28;20234;-83
2021/12/01 00:06:08;;;;;;;2.70;1.00;;;7.10;99.90;;;;;;5064562;28;20194;-83
2021/12/01 00:08:35;;;;;;;2.90;1.27;;;7.20;99.90;;;;;;5064714;28;20658;-84
2021/12/01 00:11:02;;;;;;;2.83;0.90;;;7.00;99.90;;;;;;5064085;28;20214;-83
2021/12/01 00:13:32;;;;;;;3.35;1.20;;;7.10;99.90;;;;;;5064082;28;20238;-83
2021/12/01 00:16:00;;;;;;;2.80;1.10;;;7.10;99.90;;;;;;5063074;28;20226;-83
2021/12/01 00:18:27;;;;;;;2.40;0.93;;;7.00;99.90;;;;;;5062182;28;20249;-83
2021/12/01 00:20:55;;;;;;;2.50;0.90;;;7.10;99.90;;;;;;5062985;28;20530;-83
2021/12/01 00:23:22;;;;;;;3.50;1.13;;;6.90;99.90;;;;;;5062032;28;20238;-83
2021/12/01 00:25:49;;;;;;;2.67;1.15;;;7.00;99.90;;;;;;5065377;28;20293;-83
2021/12/01 00:28:16;;;;;;;2.63;1.20;;;7.00;99.90;;;;;;5069174;28;20228;-83
2021/12/01 00:30:43;;;;;;;2.67;0.95;;;6.90;99.90;;;;;;5069149;28;20206;-83
2021/12/01 00:33:11;;;;;;;2.58;1.08;;;6.90;99.90;;;;;;5073719;28;20226;-84
2021/12/01 00:35:38;;;;;;;3.03;1.02;;;7.10;99.90;;;;;;5061318;28;20226;-83
2021/12/01 00:38:07;;;;;;;3.63;1.27;;;7.10;99.90;;;;;;5057392;28;20207;-83
2021/12/01 00:40:34;;;;;;;2.80;1.15;;;6.90;99.90;;;;;;5061315;28;20207;-84
2021/12/01 00:43:01;;;;;;;2.95;1.00;;;6.80;99.90;;;;;;5061532;28;20238;-83
2021/12/01 00:45:29;;;;;;;2.50;0.88;;;6.80;99.90;;;;;;5062156;28;20208;-84
2021/12/01 00:47:56;;;;;;;3.30;1.00;;;6.90;99.90;;;;;;5062650;28;20268;-84
2021/12/01 00:50:26;;;;;;;2.40;0.70;;;6.90;99.90;;;;;;5061699;28;20366;-84
2021/12/01 00:52:53;;;;;;;2.60;0.82;;;7.00;99.90;;;;;;5062097;28;20222;-84
2021/12/01 00:55:22;;;;;;;2.53;0.80;;;6.80;99.90;;;;;;5061311;28;20220;-84
2021/12/01 00:57:51;;;;;;;2.50;0.80;;;6.70;99.90;;;;;;5060601;28;20211;-84
2021/12/01 01:00:20;;;;;;;2.83;0.90;;;6.80;99.90;;;;;;5061192;28;20206;-83
2021/12/01 01:02:47;;;;;;;2.25;0.77;;;6.60;99.90;;;;;;5061185;28;20223;-83
2021/12/01 01:05:13;;;;;;;2.92;1.15;;;6.90;99.90;;;;;;5061287;28;20207;-83
2021/12/01 01:07:40;;;;;;;2.40;0.75;;;6.80;99.90;;;;;;5061715;28;20236;-83
2021/12/01 01:10:29;;;;;;;2.65;0.90;;;6.90;99.90;;;;;;5059976;28;20213;-83
2021/12/01 01:18:33;;;;;;;2.40;0.70;;;6.90;99.90;;;;;;5066321;28;20191;-83
2021/12/01 01:21:00;;;;;;;2.83;1.20;;;6.90;99.90;;;;;;5076166;28;20190;-83
2021/12/01 01:23:29;;;;;;;2.55;1.10;;;6.90;99.90;;;;;;5075590;28;20288;-83
2021/12/01 01:25:56;;;;;;;2.75;1.10;;;6.90;99.90;;;;;;5076081;28;20236;-83
2021/12/01 01:28:25;;;;;;;2.78;1.10;;;6.80;99.90;;;;;;5070565;28;20211;-83
2021/12/01 01:30:53;;;;;;;4.18;1.17;;;7.00;99.90;;;;;;5061604;28;20220;-83
2021/12/01 01:33:20;;;;;;;2.53;0.90;;;7.10;99.90;;;;;;5061557;28;20231;-84
2021/12/01 01:35:47;;;;;;;3.72;1.20;;;7.00;99.90;;;;;;5071719;28;20240;-83
2021/12/01 01:38:14;;;;;;;2.75;0.90;;;6.80;99.90;;;;;;5068438;28;20206;-83
2021/12/01 01:40:41;;;;;;;2.65;0.95;;;7.00;99.90;;;;;;5062477;28;20202;-83
2021/12/01 01:43:09;;;;;;;5.53;1.35;;;7.00;99.90;;;;;;5069014;28;20318;-83
2021/12/01 01:45:37;;;;;;;2.35;0.88;;;6.90;99.90;;;;;;5070976;28;20213;-83
2021/12/01 01:48:06;;;;;;;2.78;1.10;;;7.00;99.90;;;;;;5061176;28;20236;-83
2021/12/01 01:50:37;;;;;;;2.80;1.33;;;6.90;99.90;;;;;;5060912;28;20269;-84
2021/12/01 01:53:07;;;;;;;3.47;1.55;;;6.90;99.90;;;;;;5061062;28;20222;-83
2021/12/01 01:55:35;;;;;;;3.08;1.33;;;6.80;99.90;;;;;;5059832;28;20372;-83
2021/12/01 01:58:02;;;;;;;2.75;1.25;;;7.00;99.90;;;;;;5059331;28;20222;-82
2021/12/01 02:00:29;;;;;;;2.60;1.00;;;7.10;99.90;;;;;;5059867;28;20594;-82
2021/12/01 02:02:59;;;;;;;4.97;2.00;;;7.00;99.90;;;;;;5060073;28;20226;-82
2021/12/01 02:05:26;;;;;;;5.13;1.35;;;7.00;99.90;;;;;;5061146;28;20259;-82
2021/12/01 02:07:54;;;;;;;2.63;1.20;;;7.10;99.90;;;;;;5060658;28;20544;-82
2021/12/01 02:10:21;;;;;;;3.28;1.20;;;7.20;99.90;;;;;;5060778;28;20256;-82
2021/12/01 02:12:48;;;;;;;3.38;1.20;;;6.90;99.90;;;;;;5059108;28;20234;-82
2021/12/01 02:15:16;;;;;;;2.90;1.25;;;7.10;99.90;;;;;;5064231;28;20655;-82
2021/12/01 02:17:43;;;;;;;3.65;1.25;;;6.90;99.90;;;;;;5060248;28;20566;-83
2021/12/01 02:20:19;;;;;;;3.47;1.65;;;7.10;99.90;;;;;;5059905;28;20226;-83
2021/12/01 02:22:46;;;;;;;3.15;1.67;;;7.10;99.90;;;;;;5059719;28;20239;-83
2021/12/01 02:25:13;;;;;;;2.95;1.40;;;6.90;99.90;;;;;;5062014;28;20210;-82
2021/12/01 02:27:40;;;;;;;3.00;1.10;;;7.10;99.90;;;;;;5073175;28;20206;-82
2021/12/01 02:30:07;;;;;;;2.80;1.10;;;7.30;99.90;;;;;;5060094;28;20214;-82
2021/12/01 02:32:34;;;;;;;2.80;1.30;;;7.40;99.90;;;;;;5059047;28;20227;-83
2021/12/01 02:35:01;;;;;;;2.78;1.05;;;7.30;99.90;;;;;;5059189;28;20683;-82
2021/12/01 02:37:30;;;;;;;2.60;1.05;;;7.30;99.90;;;;;;5058935;28;20230;-84
2021/12/01 02:39:57;;;;;;;2.50;1.10;;;7.10;99.90;;;;;;5059842;28;20680;-82
2021/12/01 02:42:24;;;;;;;2.92;1.33;;;7.10;99.90;;;;;;5059994;28;20228;-83
2021/12/01 02:44:51;;;;;;;2.65;1.00;;;7.10;99.90;;;;;;5059368;28;20213;-82
2021/12/01 02:47:18;;;;;;;5.78;1.20;;;7.00;99.90;;;;;;5059292;28;20263;-83
2021/12/01 02:49:45;;;;;;;3.08;0.90;;;7.40;99.90;;;;;;5060020;28;20322;-82
2021/12/01 02:52:12;;;;;;;2.55;1.02;;;7.20;99.90;;;;;;5060040;28;20232;-82
2021/12/01 02:54:40;;;;;;;3.00;1.13;;;7.40;99.90;;;;;;5059273;28;20207;-83
2021/12/01 02:57:07;;;;;;;2.65;1.00;;;7.30;99.90;;;;;;5059808;28;20227;-82
2021/12/01 02:59:34;;;;;;;2.70;1.00;;;7.30;99.90;;;;;;5059024;28;20217;-82
2021/12/01 03:02:01;;;;;;;2.50;1.10;;;7.40;99.90;;;;;;5058719;28;20227;-82
2021/12/01 03:04:29;;;;;;;3.10;1.00;;;7.20;99.90;;;;;;5058928;28;20215;-82
2021/12/01 03:06:58;;;;;;;2.55;1.00;;;7.30;99.90;;;;;;5058278;28;20203;-82
2021/12/01 03:09:26;;;;;;;2.60;1.00;;;7.30;99.90;;;;;;5058204;28;20217;-82
2021/12/01 03:11:54;;;;;;;2.65;0.98;;;7.20;99.90;;;;;;5058782;28;20270;-82
2021/12/01 03:14:21;;;;;;;2.60;0.82;;;7.40;99.90;;;;;;5057814;28;20218;-82
2021/12/01 03:16:50;;;;;;;2.60;1.02;;;7.40;99.90;;;;;;5058609;28;20227;-82
2021/12/01 03:19:17;;;;;;;4.28;1.38;;;7.40;99.90;;;;;;5058879;28;20221;-82
2021/12/01 03:21:45;;;;;;;2.85;1.30;;;7.40;99.90;;;;;;5061196;28;20306;-82
2021/12/01 03:24:12;;;;;;;2.60;0.85;;;7.30;99.90;;;;;;5058125;28;20194;-83
2021/12/01 03:26:40;;;;;;;4.47;1.45;;;7.40;99.90;;;;;;5058390;28;20208;-83
2021/12/01 03:29:11;;;;;;;2.90;1.00;;;7.30;99.90;;;;;;5060185;28;20542;-83
2021/12/01 03:31:38;;;;;;;3.10;1.00;;;7.40;99.90;;;;;;5073048;28;20192;-83
2021/12/01 03:34:05;;;;;;;2.50;0.98;;;7.40;99.90;;;;;;5064465;28;20229;-83
2021/12/01 03:36:32;;;;;;;2.85;1.00;;;7.20;99.90;;;;;;5062428;28;20230;-83
2021/12/01 03:38:59;;;;;;;3.13;1.20;;;7.30;99.90;;;;;;5062585;28;20207;-83
2021/12/01 03:41:26;;;;;;;2.88;1.10;;;7.30;99.90;;;;;;5075555;28;20297;-82
2021/12/01 03:43:52;;;;;;;3.10;1.30;;;7.30;99.90;;;;;;5070801;28;20241;-84
2021/12/01 03:46:21;;;;;;;2.88;1.20;;;7.40;99.90;;;;;;5062568;28;20210;-83
2021/12/01 03:48:48;;;;;;;2.97;1.25;;;7.40;99.90;;;;;;5061888;28;20318;-84
2021/12/01 03:51:15;;;;;;;2.55;0.93;;;7.40;99.90;;;;;;5061746;28;20582;-83
2021/12/01 03:53:42;;;;;;;3.30;1.05;;;7.50;99.90;;;;;;5062408;28;20230;-83
2021/12/01 03:56:09;;;;;;;2.60;0.90;;;7.40;99.90;;;;;;5061605;28;20210;-83
2021/12/01 03:58:35;;;;;;;3.58;1.30;;;7.70;99.90;;;;;;5061522;28;20269;-84
2021/12/01 04:01:02;;;;;;;2.75;1.27;;;7.50;99.90;;;;;;5061927;28;20218;-83
2021/12/01 04:03:30;;;;;;;4.88;1.33;;;7.50;99.90;;;;;;5061816;28;20251;-83
2021/12/01 04:05:57;;;;;;;2.50;0.95;;;7.40;99.90;;;;;;5061262;28;20269;-84
2021/12/01 04:08:24;;;;;;;4.57;1.50;;;7.50;99.90;;;;;;5060671;28;20202;-83
2021/12/01 04:10:51;;;;;;;3.00;1.50;;;7.40;99.90;;;;;;5061016;28;20242;-83
2021/12/01 04:13:18;;;;;;;2.60;1.10;;;7.60;99.90;;;;;;5060559;28;20222;-83
2021/12/01 04:15:44;;;;;;;3.15;1.40;;;7.40;99.90;;;;;;5061008;28;20196;-83
2021/12/01 04:18:11;;;;;;;2.80;1.02;;;7.30;99.90;;;;;;5068034;28;20228;-83
2021/12/01 04:20:40;;;;;;;4.55;1.08;;;7.40;99.90;;;;;;5069098;28;20276;-84
2021/12/01 04:23:07;;;;;;;4.43;1.20;;;7.20;99.90;;;;;;5086489;22;20238;-81
2021/12/01 04:25:36;;;;;;;2.53;1.05;;;7.50;99.90;;;;;;5061098;28;20544;-81
2021/12/01 04:28:03;;;;;;;2.78;1.17;;;7.30;99.90;;;;;;5062466;28;20206;-81
2021/12/01 04:30:30;;;;;;;3.50;1.17;;;7.50;99.90;;;;;;5061922;28;20222;-80
2021/12/01 04:32:57;;;;;;;3.03;1.35;;;7.70;99.90;;;;;;5060567;28;20253;-81
2021/12/01 04:35:26;;;;;;;3.60;1.17;;;7.60;99.90;;;;;;5060025;28;20214;-81
2021/12/01 04:37:54;;;;;;;3.05;1.45;;;7.60;99.90;;;;;;5066796;28;20305;-80
2021/12/01 04:40:22;;;;;;;2.70;1.20;;;7.70;99.90;;;;;;5063540;28;20229;-80
2021/12/01 04:42:48;;;;;;;3.38;1.25;;;7.70;99.90;;;;;;5065311;28;20242;-79
2021/12/01 04:45:18;;;;;;;4.15;1.27;;;7.80;99.90;;;;;;5063219;28;20303;-79
2021/12/01 04:47:47;;;;;;;3.15;1.25;;;7.60;99.90;;;;;;5063870;28;20194;-79
2021/12/01 04:50:15;;;;;;;2.63;1.10;;;7.70;99.90;;;;;;5061554;28;20207;-80
2021/12/01 04:52:43;;;;;;;3.22;1.20;;;7.60;99.90;;;;;;5060698;28;20230;-79
2021/12/01 04:55:12;;;;;;;3.05;1.35;;;7.70;99.90;;;;;;5059381;28;20207;-80
2021/12/01 04:57:40;;;;;;;3.03;1.30;;;7.70;99.90;;;;;;5060614;28;20223;-79
2021/12/01 05:00:09;;;;;;;2.80;1.20;;;7.70;99.90;;;;;;5059231;28;20531;-79
2021/12/01 05:02:36;;;;;;;3.13;1.05;;;7.80;99.90;;;;;;5058501;28;20230;-80
2021/12/01 05:05:03;;;;;;;5.50;1.08;;;7.70;99.90;;;;;;5059000;28;20207;-80
2021/12/01 05:07:30;;;;;;;2.75;1.10;;;7.80;99.90;;;;;;5059639;28;20199;-79
2021/12/01 05:09:57;;;;;;;2.80;0.90;;;7.70;99.90;;;;;;5070413;28;20208;-78
2021/12/01 05:12:25;;;;;;;2.70;1.08;;;7.80;99.90;;;;;;5071043;28;20238;-79
2021/12/01 05:14:53;;;;;;;3.00;1.25;;;7.80;99.90;;;;;;5063267;28;20212;-80
2021/12/01 05:17:20;;;;;;;3.15;1.00;;;7.80;99.90;;;;;;5066456;28;20219;-78
2021/12/01 05:19:47;;;;;;;2.53;0.93;;;7.80;99.90;;;;;;5067596;28;20244;-80
2021/12/01 05:22:14;;;;;;;3.25;1.25;;;7.80;99.90;;;;;;5059840;28;20222;-79
2021/12/01 05:24:41;;;;;;;3.45;1.00;;;7.60;99.90;;;;;;5061200;28;20188;-80
2021/12/01 05:27:08;;;;;;;12.35;1.50;;;7.80;99.90;;;;;;5060931;28;20200;-80
2021/12/01 05:29:36;;;;;;;2.63;0.93;;;7.90;99.90;;;;;;5061536;28;20211;-80
2021/12/01 05:32:03;;;;;;;3.40;1.30;;;7.90;99.90;;;;;;5062585;28;20219;-79
2021/12/01 05:34:30;;;;;;;2.72;1.00;;;7.60;99.90;;;;;;5060084;28;20219;-80
2021/12/01 05:37:00;;;;;;;2.50;0.90;;;7.80;99.90;;;;;;5065549;28;20228;-81
2021/12/01 05:39:27;;;;;;;2.50;0.90;;;7.90;99.90;;;;;;5062501;28;20374;-81
2021/12/01 05:41:54;;;;;;;3.97;1.33;;;7.90;99.90;;;;;;5060349;28;20208;-79
2021/12/01 05:44:22;;;;;;;2.50;0.80;;;7.80;99.90;;;;;;5060487;28;20353;-80
2021/12/01 05:46:50;;;;;;;3.63;0.90;;;7.90;99.90;;;;;;5061577;28;20203;-81
2021/12/01 05:49:17;;;;;;;2.90;0.70;;;8.00;99.90;;;;;;5060650;28;20210;-80
2021/12/01 05:51:44;;;;;;;2.50;0.80;;;8.00;99.90;;;;;;5059558;28;20220;-78
2021/12/01 05:54:12;;;;;;;2.10;0.60;;;8.10;99.90;;;;;;5058535;28;20233;-80
2021/12/01 05:56:38;;;;;;;2.95;1.05;;;8.20;99.90;;;;;;5062415;28;20221;-79
2021/12/01 05:59:05;;;;;;;2.17;0.65;;;8.20;99.90;;;;;;5060168;28;20231;-78
2021/12/01 06:01:32;;;;;;;2.60;0.90;;;8.20;99.90;;;;;;5060392;28;20212;-81
2021/12/01 06:04:01;;;;;;;2.70;0.80;;;8.20;99.90;;;;;;5058988;28;20224;-80
2021/12/01 06:06:28;;;;;;;2.90;1.00;;;8.30;99.90;;;;;;5058436;28;20207;-80
2021/12/01 06:08:55;;;;;;;2.92;1.00;;;8.30;99.90;;;;;;5060205;28;20692;-80
2021/12/01 06:11:23;;;;;;;2.72;1.00;;;8.30;99.90;;;;;;5061796;28;20568;-81
2021/12/01 06:13:52;;;;;;;2.60;0.80;;;8.20;99.90;;;;;;5059252;28;20245;-79
2021/12/01 06:16:21;;;;;;;3.00;1.00;;;8.20;99.90;;;;;;5057978;28;20625;-79
2021/12/01 06:18:48;;;;;;;3.00;0.70;;;8.30;99.90;;;;;;5058013;28;20227;-81
2021/12/01 06:21:17;;;;;;;3.50;1.63;;;8.20;99.90;;;;;;5058001;28;20208;-79
2021/12/01 06:23:44;;;;;;;2.92;1.00;;;8.30;99.90;;;;;;5057251;28;20258;-81
2021/12/01 06:26:11;;;;;;;2.30;0.70;;;8.30;99.90;;;;;;5059357;28;20222;-80
2021/12/01 06:28:40;;;;;;;2.50;0.90;;;8.40;99.90;;;;;;5060293;28;20446;-80
2021/12/01 06:31:07;;;;;;;3.63;1.10;;;8.40;99.90;;;;;;5061183;28;20291;-80
2021/12/01 06:33:34;;;;;;;3.67;0.80;;;8.40;99.90;;;;;;5057941;28;20593;-81
2021/12/01 06:36:01;;;;;;;2.50;0.80;;;8.50;99.90;;;;;;5070561;28;20207;-79
2021/12/01 06:38:29;;;;;;;2.45;0.90;;;8.50;99.90;;;;;;5063853;28;20224;-81
2021/12/01 06:40:56;;;;;;;2.70;0.70;;;8.50;99.90;;;;;;5058120;28;20216;-81
2021/12/01 06:43:23;;;;;;;3.50;1.35;;;8.50;99.90;;;;;;5060544;28;20230;-80
2021/12/01 06:45:50;;;;;;;3.20;0.95;;;8.60;99.90;;;;;;5064763;28;20222;-80
2021/12/01 06:48:17;;;;;;;4.55;1.45;;;8.60;99.90;;;;;;5041613;28;20208;-81
2021/12/01 06:50:45;;;;;;;3.22;0.90;;;8.60;99.90;;;;;;5062994;28;20303;-79
2021/12/01 06:53:11;;;;;;;2.90;1.35;;;8.60;99.90;;;;;;5058006;28;20231;-81
2021/12/01 06:55:39;;;;;;;3.85;1.52;;;8.70;99.90;;;;;;5062963;28;20220;-80
2021/12/01 06:58:06;;;;;;;4.60;1.85;;;8.60;99.90;;;;;;5063289;28;20238;-78
2021/12/01 07:00:33;;;;;;;8.57;1.63;;;8.60;99.90;;;;;;5058827;28;20688;-80
2021/12/01 07:03:00;;;;;;;3.63;1.33;;;8.60;99.90;;;;;;5059066;28;20243;-81
2021/12/01 07:05:27;;;;;;;3.67;0.98;;;8.60;99.90;;;;;;5057974;28;20211;-81
2021/12/01 07:07:54;;;;;;;3.17;1.10;;;8.60;99.90;;;;;;5056174;28;20645;-80
2021/12/01 07:10:21;;;;;;;2.85;0.90;;;8.60;99.90;;;;;;5055984;28;20573;-80
2021/12/01 07:12:49;;;;;;;2.50;0.90;;;8.60;99.90;;;;;;5056804;28;20327;-80
2021/12/01 07:15:16;;;;;;;2.80;0.75;;;8.70;99.90;;;;;;5056808;28;20458;-80
2021/12/01 07:17:43;;;;;;;2.40;0.75;;;8.70;99.90;;;;;;5057198;28;20220;-80
2021/12/01 07:20:12;;;;;;;2.50;0.80;;;8.70;99.90;;;;;;5055962;28;20229;-80
2021/12/01 07:22:38;;;;;;;2.83;0.80;;;8.70;99.90;;;;;;5056092;28;20249;-80
2021/12/01 07:25:06;;;;;;;2.80;0.70;;;8.70;99.90;;;;;;5057573;28;20188;-79
2021/12/01 07:27:33;;;;;;;2.83;0.90;;;8.70;99.90;;;;;;5061485;28;20211;-79
2021/12/01 07:30:02;;;;;;;2.88;0.80;;;8.80;99.90;;;;;;5067284;28;20208;-81
2021/12/01 07:32:29;;;;;;;4.43;1.00;;;8.80;99.90;;;;;;5064338;28;20224;-79
2021/12/01 07:34:56;;;;;;;3.03;0.80;;;8.80;99.90;;;;;;5059431;28;20211;-79
2021/12/01 07:37:23;;;;;;;2.90;0.85;;;8.80;99.90;;;;;;5060846;28;20764;-80
2021/12/01 07:39:51;;;;;;;2.40;0.70;;;8.80;99.90;;;;;;5061181;28;20215;-79
2021/12/01 07:42:18;;;;;;;2.60;0.95;;;8.80;99.90;;;;;;5059726;28;20237;-80
2021/12/01 07:44:46;;;;;;;2.42;0.65;;;8.80;99.90;;;;;;5057614;28;20207;-80
2021/12/01 07:47:14;;;;;;;2.83;0.80;;;8.90;99.90;;;;;;5056109;28;20260;-80
2021/12/01 07:49:41;;;;;;;2.40;0.80;;;8.90;99.90;;;;;;5057252;28;20208;-81
2021/12/01 07:52:09;;;;;;;2.40;0.80;;;8.90;99.90;;;;;;5056190;28;20211;-81
2021/12/01 07:54:37;;;;;;;2.30;0.70;;;8.80;99.90;;;;;;5056380;28;20212;-81
2021/12/01 07:57:04;;;;;;;2.58;1.00;;;8.80;99.90;;;;;;5056488;28;20243;-80
2021/12/01 07:59:31;;;;;;;4.55;1.02;;;8.90;99.90;;;;;;5061052;28;20232;-77
2021/12/01 08:01:58;;;;;;;3.20;0.73;;;8.90;99.90;;;;;;5061007;28;20724;-79
2021/12/01 08:04:26;;;;;;;3.70;0.80;;;9.00;99.90;;;;;;5056762;28;20216;-79
2021/12/01 08:06:54;;;;;;;2.95;1.05;;;9.00;99.90;;;;;;5056274;28;20208;-79
2021/12/01 08:09:21;;;;;;;2.40;0.77;;;9.00;99.90;;;;;;5038519;28;20216;-79
2021/12/01 08:11:48;;;;;;;2.57;0.90;;;9.10;99.90;;;;;;5056193;28;20216;-79
2021/12/01 08:14:15;;;;;;;2.25;0.70;;;9.10;99.90;;;;;;5059569;28;20569;-79
2021/12/01 08:16:42;;;;;;;2.20;0.60;;;9.10;99.90;;;;;;5058638;28;20205;-81
2021/12/01 08:19:09;;;;;;;2.83;0.70;;;9.10;99.90;;;;;;5058632;28;20253;-79
2021/12/01 08:21:37;;;;;;;5.70;0.70;;;9.20;99.90;;;;;;5061237;28;20210;-80
2021/12/01 08:24:04;;;;;;;3.00;0.80;;;9.10;99.90;;;;;;5061294;28;20231;-80
2021/12/01 08:26:40;;;;;;;2.83;0.68;;;9.10;99.90;;;;;;5074346;28;20280;-77
2021/12/01 08:29:08;;;;;;;3.10;1.00;;;9.20;99.90;;;;;;5070439;28;20239;-79
2021/12/01 08:31:35;;;;;;;3.97;0.70;;;9.10;99.90;;;;;;5061242;28;20209;-80
2021/12/01 08:34:02;;;;;;;4.55;0.85;;;9.20;99.90;;;;;;5060374;28;20260;-80
2021/12/01 08:36:28;;;;;;;2.40;0.70;;;9.40;99.90;;;;;;5064273;28;20204;-80
2021/12/01 08:38:57;;;;;;;2.67;0.63;;;9.40;99.90;;;;;;5060674;28;20719;-80
2021/12/01 08:41:24;;;;;;;2.93;1.10;;;9.50;99.90;;;;;;5059252;28;20451;-80
2021/12/01 08:43:51;;;;;;;2.20;0.60;;;9.60;99.90;;;;;;5060636;28;20470;-80
2021/12/01 08:46:17;;;;;;;2.78;0.80;;;9.60;99.90;;;;;;5067405;28;20451;-79
2021/12/01 08:48:44;;;;;;;2.90;0.95;;;9.60;99.90;;;;;;5068940;28;20204;-80
2021/12/01 08:51:11;;;;;;;2.63;0.80;;;9.50;99.90;;;;;;5064306;28;20208;-82
2021/12/01 08:53:41;;;;;;;3.75;0.80;;;9.50;99.90;;;;;;5046517;28;20566;-80
2021/12/01 08:56:11;;;;;;;4.78;1.92;;;9.50;99.90;;;;;;5063077;28;20266;-82
2021/12/01 08:58:40;;;;;;;3.00;0.83;;;9.60;99.90;;;;;;5065556;28;20242;-81
2021/12/01 09:01:07;;;;;;;2.40;0.67;;;9.70;99.90;;;;;;5067120;28;20440;-80
2021/12/01 09:03:34;;;;;;;2.67;0.87;;;9.80;99.90;;;;;;5062233;28;20477;-82
2021/12/01 09:06:01;;;;;;;2.77;0.80;;;9.80;99.90;;;;;;5061132;28;20825;-80
2021/12/01 09:08:28;;;;;;;5.47;1.20;;;9.80;99.90;;;;;;5061639;28;20465;-81
2021/12/01 09:10:57;;;;;;;2.20;0.60;;;9.90;99.90;;;;;;5060212;28;20465;-81
2021/12/01 09:13:28;;;;;;;2.90;1.00;;;10.10;99.90;;;;;;5064320;28;20464;-80
2021/12/01 09:15:56;;;;;;;4.10;0.70;;;10.30;99.90;;;;;;5061126;28;20428;-81
2021/12/01 09:18:25;;;;;;;2.50;0.73;;;10.50;99.90;;;;;;5058928;28;20494;-81
2021/12/01 09:20:52;;;;;;;2.37;0.70;;;10.50;99.90;;;;;;5058944;28;20542;-79
2021/12/01 09:23:19;;;;;;;4.70;1.20;;;10.50;99.90;;;;;;5059599;28;20855;-79
2021/12/01 09:25:47;;;;;;;5.90;1.20;;;10.60;99.90;;;;;;5058791;28;20456;-81
2021/12/01 09:28:17;;;;;;;2.87;0.63;;;10.60;99.90;;;;;;5059304;28;20470;-80
2021/12/01 09:30:46;;;;;;;2.50;1.00;;;10.70;99.90;;;;;;5061494;28;20434;-80
2021/12/01 09:33:13;;;;;;;3.10;0.90;;;10.60;99.90;;;;;;5068146;28;20446;-80
2021/12/01 09:35:40;;;;;;;6.10;1.10;;;10.70;99.90;;;;;;5067090;28;20547;-80
2021/12/01 09:38:07;;;;;;;4.50;0.50;;;10.70;99.90;;;;;;5072675;28;20488;-81
2021/12/01 09:40:35;;;;;;;2.87;0.93;;;10.70;99.90;;;;;;5071842;28;20467;-79
2021/12/01 09:43:02;;;;;;;2.60;0.60;;;10.70;99.90;;;;;;5069551;28;20471;-81
2021/12/01 09:45:29;;;;;;;2.83;0.73;;;10.60;99.90;;;;;;5067754;28;20462;-81
2021/12/01 09:47:57;;;;;;;3.17;0.70;;;10.50;99.90;;;;;;5066904;28;20831;-82
2021/12/01 09:50:24;;;;;;;2.40;0.60;;;10.50;99.90;;;;;;5061455;28;20811;-80
2021/12/01 09:52:51;;;;;;;2.20;0.60;;;10.50;99.90;;;;;;5061537;28;20475;-80
2021/12/01 09:55:18;;;;;;;3.07;0.57;;;10.50;99.90;;;;;;5062587;28;20447;-80
2021/12/01 09:57:57;;;;;;;2.20;0.60;;;10.40;99.90;;;;;;5063576;28;20455;-82
2021/12/01 10:00:29;;;;;;;2.33;0.50;;;10.50;99.90;;;;;;5065031;28;20436;-79
2021/12/01 10:02:58;;;;;;;5.60;1.27;;;10.60;99.90;;;;;;5061657;28;20541;-80
2021/12/01 10:05:49;;;;;;;3.93;0.83;;;10.60;99.90;;;;;;5066302;28;20956;-79
2021/12/01 10:08:20;;;;;;;6.20;1.43;;;10.60;99.90;;;;;;5068902;28;20472;-81
2021/12/01 10:10:47;;;;;;;2.90;1.13;;;10.60;99.90;;;;;;5067692;28;20499;-81
2021/12/01 10:13:14;;;;;;;3.23;0.70;;;10.50;99.90;;;;;;5065763;28;20478;-81
2021/12/01 10:15:41;;;;;;;2.27;0.53;;;10.60;99.90;;;;;;5063786;28;20461;-80
2021/12/01 10:18:14;;;;;;;3.17;0.90;;;10.60;99.90;;;;;;5060031;28;20550;-79
2021/12/01 10:20:56;;;;;;;2.80;0.63;;;10.60;99.90;;;;;;5065001;28;20451;-78
2021/12/01 10:23:24;;;;;;;2.83;0.70;;;10.70;99.90;;;;;;5062890;28;20502;-81
2021/12/01 10:25:51;;;;;;;2.50;0.67;;;10.80;99.90;;;;;;5063726;28;20481;-82
2021/12/01 10:28:39;;;;;;;2.97;0.70;;;10.90;99.90;;;;;;5057187;28;20448;-80
2021/12/01 10:31:06;;;;;;;2.47;0.70;;;11.00;99.90;;;;;;5058991;28;20472;-80
2021/12/01 10:33:35;;;;;;;2.30;0.70;;;11.00;99.90;;;;;;5066891;28;20470;-80
2021/12/01 10:36:03;;;;;;;2.53;0.80;;;11.00;99.90;;;;;;5067107;28;20448;-80
2021/12/01 10:38:32;;;;;;;2.30;0.70;;;11.00;99.90;;;;;;5071266;28;20518;-81
2021/12/01 10:41:08;;;;;;;2.47;0.70;;;11.10;99.90;;;;;;5079968;22;20920;-83
2021/12/01 10:43:46;;;;;;;2.47;0.60;;;11.10;99.90;;;;;;5064806;28;20736;-84
2021/12/01 10:46:15;;;;;;;4.70;0.93;;;11.10;99.90;;;;;;5059882;28;20440;-84
2021/12/01 10:48:46;;;;;;;2.50;0.60;;;11.20;99.90;;;;;;5060021;28;20521;-84
2021/12/01 10:51:33;;;;;;;2.63;0.70;;;11.30;99.90;;;;;;5059643;28;20472;-83
2021/12/01 10:54:00;;;;;;;2.87;1.03;;;11.20;99.90;;;;;;5062445;28;20443;-83
2021/12/01 10:56:27;;;;;;;4.10;0.90;;;11.20;99.90;;;;;;5061613;28;20464;-83
2021/12/01 10:58:54;;;;;;;3.20;1.20;;;11.30;99.90;;;;;;5071663;28;20484;-81
2021/12/01 11:01:23;;;;;;;3.73;1.27;;;11.20;99.90;;;;;;5059707;28;20480;-84
2021/12/01 11:03:52;;;;;;;2.83;0.73;;;11.30;99.90;;;;;;5059149;28;20479;-83
2021/12/01 11:06:21;;;;;;;2.50;0.70;;;11.40;99.90;;;;;;5061001;28;20453;-84
2021/12/01 11:08:55;;;;;;;2.63;0.90;;;11.50;99.90;;;;;;5066458;28;20456;-84
2021/12/01 11:11:23;;;;;;;2.57;0.80;;;11.50;99.90;;;;;;5071477;28;20480;-84
2021/12/01 11:13:51;;;;;;;3.53;0.80;;;11.60;99.90;;;;;;5070108;28;20490;-85
2021/12/01 11:16:19;;;;;;;2.97;0.63;;;11.60;99.90;;;;;;5060875;28;20455;-84
2021/12/01 11:18:48;;;;;;;2.80;0.80;;;11.50;99.90;;;;;;5058902;28;20492;-84
2021/12/01 11:21:18;;;;;;;2.50;1.17;;;11.60;99.90;;;;;;5059393;28;20522;-84
2021/12/01 11:23:46;;;;;;;3.40;0.90;;;11.60;99.90;;;;;;5059471;28;20506;-83
2021/12/01 11:26:19;;;;;;;2.37;0.80;;;11.60;99.90;;;;;;5059470;28;20460;-84
2021/12/01 11:28:48;;;;;;;2.47;0.77;;;11.60;99.90;;;;;;5059246;28;20448;-87
2021/12/01 11:31:22;;;;;;;3.00;1.20;;;11.60;99.90;;;;;;5059182;28;20475;-85
2021/12/01 11:33:54;;;;;;;2.50;0.90;;;11.50;99.90;;;;;;5060599;28;20435;-85
2021/12/01 11:36:27;;;;;;;3.70;1.10;;;11.60;99.90;;;;;;5060599;28;20472;-84
2021/12/01 11:38:56;;;;;;;4.47;1.07;;;11.50;99.90;;;;;;5061683;28;20478;-84
2021/12/01 11:41:24;;;;;;;2.53;0.73;;;11.50;99.90;;;;;;5060353;28;20479;-84
2021/12/01 11:43:51;;;;;;;3.33;0.83;;;11.60;99.90;;;;;;5062212;28;20497;-84
2021/12/01 11:46:19;;;;;;;2.97;0.90;;;11.60;99.90;;;;;;5062408;28;20448;-85
2021/12/01 11:48:47;;;;;;;2.60;0.90;;;11.60;99.90;;;;;;5069067;28;20470;-84
2021/12/01 11:51:19;;;;;;;6.60;3.17;;;11.70;99.90;;;;;;5071588;28;20472;-84
2021/12/01 11:53:51;;;;;;;4.70;1.30;;;11.70;99.90;;;;;;5065478;28;20410;-85
2021/12/01 11:56:22;;;;;;;2.30;0.70;;;11.80;99.90;;;;;;5068036;28;20432;-84
2021/12/01 11:58:57;;;;;;;2.43;0.70;;;11.70;99.90;;;;;;5069142;28;20566;-84
2021/12/01 12:01:44;;;;;;;2.20;0.60;;;11.60;99.90;;;;;;5068917;28;20865;-84
2021/12/01 12:04:23;;;;;;;2.23;0.70;;;11.70;99.90;;;;;;5070965;28;20436;-85
2021/12/01 12:06:53;;;;;;;2.60;0.80;;;11.70;99.90;;;;;;5067533;28;20440;-84
2021/12/01 12:09:22;;;;;;;3.30;1.00;;;11.70;99.90;;;;;;5067217;28;20431;-85
2021/12/01 12:11:51;;;;;;;4.50;1.00;;;11.70;99.90;;;;;;5066334;28;20451;-85
2021/12/01 12:14:21;;;;;;;5.00;0.80;;;11.70;99.90;;;;;;5068734;28;20498;-85
2021/12/01 12:17:12;;;;;;;2.80;0.83;;;11.70;99.90;;;;;;5063936;28;20455;-84
2021/12/01 12:20:02;;;;;;;4.33;1.57;;;11.60;99.90;;;;;;5074787;28;20563;-85
2021/12/01 12:22:39;;;;;;;3.43;1.20;;;11.70;99.90;;;;;;5065885;28;20497;-84
2021/12/01 12:25:13;;;;;;;2.50;0.90;;;11.70;99.90;;;;;;5067004;28;20488;-84
2021/12/01 12:27:42;;;;;;;2.83;1.00;;;11.70;99.90;;;;;;5066869;28;20442;-84
2021/12/01 12:30:14;;;;;;;2.40;1.00;;;11.60;99.90;;;;;;5068518;28;20808;-85
2021/12/01 12:32:43;;;;;;;3.03;1.00;;;11.60;99.90;;;;;;5065751;28;20462;-86
2021/12/01 12:35:13;;;;;;;2.40;0.67;;;11.60;99.90;;;;;;5064813;28;20466;-84
2021/12/01 12:37:40;;;;;;;3.13;1.00;;;11.60;99.90;;;;;;5064694;28;20533;-85
2021/12/01 12:40:13;;;;;;;3.33;1.30;;;11.50;99.90;;;;;;5062553;28;20492;-81
2021/12/01 12:43:08;;;;;;;2.90;1.00;;;11.60;99.90;;;;;;5063942;28;20442;-85
2021/12/01 12:45:36;;;;;;;4.00;2.00;;;11.50;99.90;;;;;;5065001;28;20438;-85
2021/12/01 12:48:27;;;;;;;2.63;1.00;;;11.60;99.90;;;;;;5065829;28;20451;-85
2021/12/01 12:51:22;;;;;;;3.23;1.30;;;11.60;99.90;;;;;;5066402;28;20469;-83
2021/12/01 12:54:12;;;;;;;4.93;1.50;;;11.60;99.90;;;;;;5069419;28;20436;-84
2021/12/01 12:56:43;;;;;;;3.80;1.37;;;11.40;99.90;;;;;;5066297;28;20482;-84
2021/12/01 12:59:21;;;;;;;3.33;1.50;;;11.40;99.90;;;;;;5066826;28;20494;-86
2021/12/01 13:01:49;;;;;;;2.50;1.00;;;11.30;99.90;;;;;;5063929;28;20541;-85
2021/12/01 13:04:54;;;;;;;2.90;1.17;;;11.40;99.90;;;;;;5066606;28;20447;-85
2021/12/01 13:07:45;;;;;;;3.20;0.97;;;11.30;99.90;;;;;;5066801;28;20446;-85